Time;durP1;ratioP1;P1;durP2;ratioP2;P2;SDS_P1;SDS_P2;PMS_P1;PMS_P2;Temp;Humidity;BMP_temperature;BMP_pressure;BME280_temperature;BME280_humidity;BME280_pressure;Samples;Min_cycle;Max_cycle;Signal;HPM_P1;HPM_P2
2024/01/09 00:00:50;;;;;;;6.40;2.50;;;-2.60;99.90;;;;;;5109931;28;20419;-89
2024/01/09 00:03:15;;;;;;;4.95;2.50;;;-2.60;99.90;;;;;;5110754;28;20796;-90
2024/01/09 00:05:41;;;;;;;5.13;2.70;;;-2.50;99.90;;;;;;5109792;27;20444;-91
2024/01/09 00:08:07;;;;;;;5.20;2.67;;;-2.60;99.90;;;;;;5110605;28;20406;-90
2024/01/09 00:10:33;;;;;;;5.40;2.45;;;-2.70;99.90;;;;;;5109866;27;20414;-90
2024/01/09 00:12:58;;;;;;;5.85;2.80;;;-2.70;99.90;;;;;;5109749;28;20943;-91
2024/01/09 00:15:24;;;;;;;5.47;2.45;;;-2.70;99.90;;;;;;5128038;27;20408;-88
2024/01/09 00:17:51;;;;;;;6.37;3.03;;;-2.70;99.90;;;;;;5130123;27;20408;-90
2024/01/09 00:20:16;;;;;;;5.28;2.78;;;-2.70;99.90;;;;;;5147935;27;20393;-90
2024/01/09 00:22:42;;;;;;;5.63;2.80;;;-2.80;99.90;;;;;;5129896;27;20424;-90
2024/01/09 00:25:08;;;;;;;4.43;2.65;;;-2.80;99.90;;;;;;5130732;27;20397;-89
2024/01/09 00:27:34;;;;;;;5.70;2.47;;;-2.80;99.90;;;;;;5130270;27;20393;-92
2024/01/09 00:30:01;;;;;;;5.50;2.80;;;-2.80;99.90;;;;;;5130138;27;20397;-89
2024/01/09 00:32:27;;;;;;;6.32;2.70;;;-2.80;99.90;;;;;;5148582;27;20413;-91
2024/01/09 00:34:52;;;;;;;5.53;2.93;;;-2.70;99.90;;;;;;5134138;27;20461;-91
2024/01/09 00:37:18;;;;;;;6.40;2.50;;;-2.90;99.90;;;;;;5134257;27;20507;-91
2024/01/09 00:39:44;;;;;;;4.97;2.90;;;-2.90;99.90;;;;;;5150868;27;20445;-91
2024/01/09 00:42:10;;;;;;;6.05;3.10;;;-2.90;99.90;;;;;;5119886;27;20760;-92
2024/01/09 00:44:35;;;;;;;6.45;3.28;;;-2.90;99.90;;;;;;5122254;27;20407;-90
2024/01/09 00:47:01;;;;;;;4.78;2.97;;;-3.00;99.90;;;;;;5134054;27;20918;-90
2024/01/09 00:49:27;;;;;;;5.40;2.92;;;-3.10;99.90;;;;;;5133801;27;20739;-92
2024/01/09 00:51:52;;;;;;;6.15;2.72;;;-2.80;99.90;;;;;;5113385;27;20399;-89
2024/01/09 00:54:19;;;;;;;5.97;2.97;;;-3.10;99.90;;;;;;5113405;27;20755;-90
2024/01/09 00:56:45;;;;;;;5.32;2.53;;;-3.10;99.90;;;;;;5112803;27;20395;-90
2024/01/09 00:59:11;;;;;;;5.80;2.80;;;-3.10;99.90;;;;;;5113660;27;20904;-92
2024/01/09 01:01:36;;;;;;;5.43;2.67;;;-3.10;99.90;;;;;;5112879;27;21281;-92
2024/01/09 01:04:02;;;;;;;5.80;2.50;;;-3.20;99.90;;;;;;5130474;27;20391;-90
2024/01/09 01:06:28;;;;;;;5.30;2.87;;;-2.90;99.90;;;;;;5130350;27;20869;-91
2024/01/09 01:08:53;;;;;;;5.53;2.65;;;-3.00;99.90;;;;;;5123386;27;20491;-92
2024/01/09 01:11:19;;;;;;;6.63;2.97;;;-3.20;99.90;;;;;;5150587;27;20480;-88
2024/01/09 01:13:45;;;;;;;6.38;3.10;;;-3.30;99.90;;;;;;5133153;27;20453;-91
2024/01/09 01:16:10;;;;;;;5.50;3.20;;;-3.30;99.90;;;;;;5134036;27;20442;-92
2024/01/09 01:18:36;;;;;;;5.47;2.80;;;-3.30;99.90;;;;;;5132927;27;20405;-90
2024/01/09 01:21:01;;;;;;;6.03;2.60;;;-3.30;99.90;;;;;;5133350;27;20393;-91
2024/01/09 01:23:27;;;;;;;5.00;2.65;;;-3.30;99.90;;;;;;5126485;27;20430;-92
2024/01/09 01:25:55;;;;;;;5.93;2.55;;;-3.30;99.90;;;;;;5112459;27;22208;-91
2024/01/09 01:28:20;;;;;;;6.03;2.93;;;-3.40;99.90;;;;;;5112496;27;20834;-91
2024/01/09 01:30:46;;;;;;;5.70;2.80;;;-3.30;99.90;;;;;;5112258;27;20434;-91
2024/01/09 01:33:11;;;;;;;5.57;2.70;;;-3.20;99.90;;;;;;5125008;27;21042;-91
2024/01/09 01:35:37;;;;;;;5.93;2.90;;;-3.10;99.90;;;;;;5132389;27;20752;-91
2024/01/09 01:38:03;;;;;;;4.60;2.47;;;-3.40;99.90;;;;;;5133418;27;20410;-91
2024/01/09 01:40:28;;;;;;;5.95;2.90;;;-3.40;99.90;;;;;;5132379;27;20480;-91
2024/01/09 01:42:57;;;;;;;5.95;3.22;;;-3.40;99.90;;;;;;5116690;27;20430;-90
2024/01/09 01:45:24;;;;;;;6.88;3.22;;;-3.50;99.90;;;;;;5112204;27;20398;-91
2024/01/09 01:47:50;;;;;;;4.90;2.97;;;-3.40;99.90;;;;;;5129214;27;20525;-91
2024/01/09 01:50:15;;;;;;;5.73;2.87;;;-3.50;99.90;;;;;;5112234;27;20423;-91
2024/01/09 01:52:45;;;;;;;5.40;2.73;;;-3.50;99.90;;;;;;5111831;27;20425;-91
2024/01/09 01:55:11;;;;;;;6.75;3.13;;;-3.50;99.90;;;;;;5129694;27;20766;-90
2024/01/09 01:57:38;;;;;;;4.93;2.83;;;-3.50;99.90;;;;;;5111861;27;20398;-90
2024/01/09 02:00:05;;;;;;;5.78;3.30;;;-3.60;99.90;;;;;;5129180;27;20885;-90
2024/01/09 02:02:32;;;;;;;6.43;2.90;;;-3.50;99.90;;;;;;5111478;27;20413;-92
2024/01/09 02:04:57;;;;;;;6.18;2.58;;;-3.60;99.90;;;;;;5112174;27;20766;-90
2024/01/09 02:07:26;;;;;;;6.10;2.87;;;-3.60;99.90;;;;;;5111510;27;20386;-90
2024/01/09 02:09:53;;;;;;;6.50;2.80;;;-3.60;99.90;;;;;;5127349;27;20389;-90
2024/01/09 02:12:19;;;;;;;6.43;3.13;;;-3.40;99.90;;;;;;5132628;27;20975;-92
2024/01/09 02:14:46;;;;;;;6.00;2.90;;;-3.60;99.90;;;;;;5131944;27;21413;-91
2024/01/09 02:17:13;;;;;;;6.47;2.80;;;-3.50;99.90;;;;;;5130546;27;20393;-91
2024/01/09 02:19:39;;;;;;;6.72;3.05;;;-3.60;99.90;;;;;;5128650;27;20413;-90
2024/01/09 02:22:04;;;;;;;4.93;2.90;;;-3.70;99.90;;;;;;5111197;27;21249;-91
2024/01/09 02:24:30;;;;;;;5.78;2.85;;;-3.70;99.90;;;;;;5111335;27;20413;-90
2024/01/09 02:27:34;;;;;;;6.00;2.80;;;-3.70;99.90;;;;;;5128549;27;20403;-89
2024/01/09 02:30:00;;;;;;;5.30;2.70;;;-3.70;99.90;;;;;;5108360;27;20425;-90
2024/01/09 02:32:26;;;;;;;6.32;2.90;;;-3.60;99.90;;;;;;5111045;27;20793;-90
2024/01/09 02:34:52;;;;;;;5.10;2.60;;;-3.70;99.90;;;;;;5110950;27;20407;-90
2024/01/09 02:37:18;;;;;;;6.53;3.05;;;-3.70;99.90;;;;;;5110975;27;20403;-91
2024/01/09 02:39:43;;;;;;;5.03;2.73;;;-3.70;99.90;;;;;;5111629;27;20472;-89
2024/01/09 02:42:09;;;;;;;5.82;2.75;;;-3.70;99.90;;;;;;5111356;27;20916;-91
2024/01/09 02:44:35;;;;;;;6.47;2.83;;;-3.70;99.90;;;;;;5110571;27;20889;-90
2024/01/09 02:47:00;;;;;;;7.10;2.65;;;-3.70;99.90;;;;;;5111394;27;20390;-90
2024/01/09 02:49:26;;;;;;;4.23;2.60;;;-3.80;99.90;;;;;;5110979;27;20402;-92
2024/01/09 02:51:52;;;;;;;5.67;2.70;;;-3.60;99.90;;;;;;5128119;27;20391;-90
2024/01/09 02:54:18;;;;;;;5.13;2.95;;;-3.70;99.90;;;;;;5110315;27;20429;-90
2024/01/09 02:56:44;;;;;;;5.90;2.80;;;-3.80;99.90;;;;;;5110345;27;20407;-90
2024/01/09 02:59:09;;;;;;;5.60;2.80;;;-3.90;99.90;;;;;;5110737;27;20422;-92
2024/01/09 03:01:35;;;;;;;5.00;2.80;;;-3.90;99.90;;;;;;5128068;27;20485;-91
2024/01/09 03:04:01;;;;;;;6.30;2.80;;;-3.90;99.90;;;;;;5111453;27;20444;-89
2024/01/09 03:06:26;;;;;;;5.27;2.63;;;-4.00;99.90;;;;;;5127725;27;20472;-89
2024/01/09 03:08:52;;;;;;;5.47;2.80;;;-4.00;99.90;;;;;;5110975;27;20411;-92
2024/01/09 03:11:18;;;;;;;5.57;3.03;;;-3.90;99.90;;;;;;5110102;27;20447;-91
2024/01/09 03:13:44;;;;;;;5.97;2.70;;;-4.10;99.90;;;;;;5110753;27;20434;-90
2024/01/09 03:16:11;;;;;;;5.85;2.97;;;-4.10;99.90;;;;;;5110252;27;20893;-91
2024/01/09 03:18:37;;;;;;;6.13;3.25;;;-4.10;99.90;;;;;;5121318;27;20482;-90
2024/01/09 03:21:02;;;;;;;8.33;2.83;;;-4.30;99.90;;;;;;5131598;27;20393;-91
2024/01/09 03:23:28;;;;;;;6.40;3.07;;;-4.20;99.90;;;;;;5130602;27;20413;-91
2024/01/09 03:25:54;;;;;;;7.40;3.47;;;-4.20;99.90;;;;;;5131879;27;20853;-90
2024/01/09 03:28:19;;;;;;;7.50;3.20;;;-4.20;99.90;;;;;;5130534;27;20964;-89
2024/01/09 03:30:45;;;;;;;6.43;3.47;;;-4.30;99.90;;;;;;5131127;27;20500;-93
2024/01/09 03:33:11;;;;;;;6.57;3.30;;;-4.20;99.90;;;;;;5147827;27;20413;-90
2024/01/09 03:35:36;;;;;;;6.93;3.13;;;-4.30;99.90;;;;;;5131260;27;20607;-90
2024/01/09 03:38:02;;;;;;;6.72;2.85;;;-4.30;99.90;;;;;;5131236;27;21073;-91
2024/01/09 03:40:28;;;;;;;6.10;2.75;;;-4.30;99.90;;;;;;5130769;27;20400;-88
2024/01/09 03:42:54;;;;;;;6.43;2.90;;;-4.30;99.90;;;;;;5131288;27;20457;-93
2024/01/09 03:45:20;;;;;;;6.88;2.97;;;-4.30;99.90;;;;;;5130528;27;20484;-90
2024/01/09 03:47:46;;;;;;;7.07;3.22;;;-4.30;99.90;;;;;;5130862;27;20476;-90
2024/01/09 03:50:11;;;;;;;6.75;3.17;;;-4.40;99.90;;;;;;5130345;27;20396;-91
2024/01/09 03:52:37;;;;;;;6.50;3.30;;;-4.40;99.90;;;;;;5131084;27;20480;-91
2024/01/09 03:55:03;;;;;;;7.00;3.33;;;-4.40;99.90;;;;;;5130251;27;20405;-90
2024/01/09 03:57:28;;;;;;;7.33;3.47;;;-4.40;99.90;;;;;;5131225;27;20468;-90
2024/01/09 03:59:54;;;;;;;6.00;2.93;;;-4.50;99.90;;;;;;5131146;27;20451;-91
2024/01/09 04:02:19;;;;;;;5.60;3.13;;;-4.50;99.90;;;;;;5147933;27;20752;-90
2024/01/09 04:04:45;;;;;;;6.82;3.47;;;-4.50;99.90;;;;;;5131381;27;20425;-90
2024/01/09 04:07:11;;;;;;;7.80;3.50;;;-4.50;99.90;;;;;;5131293;27;20411;-90
2024/01/09 04:09:37;;;;;;;6.70;3.07;;;-4.60;99.90;;;;;;5131218;27;20402;-91
2024/01/09 04:12:02;;;;;;;4.60;2.57;;;-4.60;99.90;;;;;;5113981;27;20417;-90
2024/01/09 04:14:28;;;;;;;6.37;2.93;;;-4.60;99.90;;;;;;5114072;27;20398;-92
2024/01/09 04:16:54;;;;;;;5.67;3.10;;;-4.20;99.90;;;;;;5114177;27;20407;-91
2024/01/09 04:19:19;;;;;;;6.10;2.93;;;-4.60;99.90;;;;;;5114203;27;21088;-90
2024/01/09 04:21:45;;;;;;;5.18;2.78;;;-4.60;99.90;;;;;;5131652;27;20840;-89
2024/01/09 04:24:10;;;;;;;6.90;3.30;;;-4.60;99.90;;;;;;5113541;27;20885;-91
2024/01/09 04:26:36;;;;;;;5.93;3.37;;;-4.60;99.90;;;;;;5114159;27;20890;-90
2024/01/09 04:29:02;;;;;;;6.77;3.23;;;-4.40;99.90;;;;;;5113205;27;20436;-91
2024/01/09 04:31:27;;;;;;;6.77;2.90;;;-4.60;99.90;;;;;;5114016;27;20765;-90
2024/01/09 04:33:53;;;;;;;5.30;3.10;;;-4.60;99.90;;;;;;5118383;27;20513;-90
2024/01/09 04:36:19;;;;;;;5.40;2.92;;;-4.60;99.90;;;;;;5150870;27;20405;-90
2024/01/09 04:38:46;;;;;;;6.53;2.95;;;-4.70;99.90;;;;;;5113757;27;20458;-88
2024/01/09 04:41:16;;;;;;;5.40;2.85;;;-4.70;99.90;;;;;;5130118;27;20410;-88
2024/01/09 04:43:43;;;;;;;6.03;2.95;;;-4.70;99.90;;;;;;5113939;27;20391;-90
2024/01/09 04:46:08;;;;;;;5.65;2.97;;;-4.60;99.90;;;;;;5112744;27;20436;-90
2024/01/09 04:48:34;;;;;;;4.87;2.90;;;-4.70;99.90;;;;;;5130368;27;20399;-90
2024/01/09 04:51:00;;;;;;;5.20;2.97;;;-4.70;99.90;;;;;;5113080;27;20399;-90
2024/01/09 04:53:25;;;;;;;5.88;2.97;;;-4.70;99.90;;;;;;5113285;27;21028;-91
2024/01/09 04:55:51;;;;;;;4.90;2.63;;;-4.70;99.90;;;;;;5125414;27;20891;-90
2024/01/09 04:58:17;;;;;;;7.20;2.88;;;-4.70;99.90;;;;;;5126233;27;21202;-90
2024/01/09 05:00:42;;;;;;;5.80;3.22;;;-4.70;99.90;;;;;;5113794;27;20398;-90
2024/01/09 05:03:08;;;;;;;6.77;3.43;;;-4.70;99.90;;;;;;5112991;27;20395;-88
2024/01/09 05:05:34;;;;;;;6.60;3.23;;;-4.70;99.90;;;;;;5113562;27;20391;-89
2024/01/09 05:07:59;;;;;;;5.80;2.80;;;-4.80;99.90;;;;;;5112494;27;20399;-89
2024/01/09 05:10:25;;;;;;;6.63;3.33;;;-4.80;99.90;;;;;;5121410;27;20392;-89
2024/01/09 05:12:51;;;;;;;6.35;3.38;;;-4.80;99.90;;;;;;5132967;27;20424;-90
2024/01/09 05:15:16;;;;;;;6.22;3.40;;;-4.80;99.90;;;;;;5133003;27;20400;-90
2024/01/09 05:17:42;;;;;;;6.53;3.38;;;-4.60;99.90;;;;;;5133764;27;20408;-90
2024/01/09 05:20:08;;;;;;;7.37;3.97;;;-4.80;99.90;;;;;;5132645;27;20441;-89
2024/01/09 05:22:36;;;;;;;6.32;3.30;;;-4.80;99.90;;;;;;5133695;27;20452;-91
2024/01/09 05:25:06;;;;;;;5.60;3.10;;;-4.60;99.90;;;;;;5132554;27;20527;-89
2024/01/09 05:27:32;;;;;;;6.17;3.20;;;-4.90;99.90;;;;;;5133318;27;20389;-90
2024/01/09 05:29:58;;;;;;;6.47;3.67;;;-4.70;99.90;;;;;;5112897;27;20875;-91
2024/01/09 05:32:24;;;;;;;7.28;3.72;;;-4.60;99.90;;;;;;5112430;27;20474;-89
2024/01/09 05:34:50;;;;;;;7.88;3.95;;;-4.90;99.90;;;;;;5129565;27;20490;-89
2024/01/09 05:37:16;;;;;;;7.05;3.95;;;-4.90;99.90;;;;;;5112633;27;20428;-89
2024/01/09 05:39:48;;;;;;;6.37;4.00;;;-4.70;99.90;;;;;;5112800;27;20783;-89
2024/01/09 05:42:13;;;;;;;7.95;4.65;;;-5.00;99.90;;;;;;5129240;27;20430;-90
2024/01/09 05:44:39;;;;;;;8.57;4.45;;;-4.90;99.90;;;;;;5112344;27;20909;-89
2024/01/09 05:47:05;;;;;;;8.00;4.50;;;-4.90;99.90;;;;;;5123345;27;20397;-90
2024/01/09 05:49:30;;;;;;;6.53;4.20;;;-4.90;99.90;;;;;;5132532;27;20780;-90
2024/01/09 05:51:56;;;;;;;6.93;4.20;;;-4.90;99.90;;;;;;5149874;27;20389;-89
2024/01/09 05:54:22;;;;;;;7.97;4.30;;;-5.00;99.90;;;;;;5149178;27;20451;-90
2024/01/09 05:56:48;;;;;;;6.25;3.97;;;-5.00;99.90;;;;;;5132978;27;20433;-89
2024/01/09 05:59:15;;;;;;;7.88;4.32;;;-4.90;99.90;;;;;;5149018;27;20409;-91
2024/01/09 06:01:40;;;;;;;6.35;4.50;;;-5.00;99.90;;;;;;5132936;27;20465;-89
2024/01/09 06:04:06;;;;;;;7.22;4.53;;;-5.00;99.90;;;;;;5129363;27;20389;-91
2024/01/09 06:06:32;;;;;;;7.90;4.47;;;-5.00;99.90;;;;;;5111583;27;20461;-88
2024/01/09 06:08:57;;;;;;;8.17;4.63;;;-5.00;99.90;;;;;;5111496;27;20406;-90
2024/01/09 06:11:23;;;;;;;7.77;4.70;;;-5.00;99.90;;;;;;5128455;27;20409;-90
2024/01/09 06:13:49;;;;;;;7.67;4.87;;;-5.00;99.90;;;;;;5111645;27;20471;-90
2024/01/09 06:16:14;;;;;;;8.50;5.05;;;-5.00;99.90;;;;;;5114594;27;20413;-89
2024/01/09 06:18:40;;;;;;;7.00;4.18;;;-5.00;99.90;;;;;;5127688;27;20487;-89
2024/01/09 06:21:05;;;;;;;6.97;4.60;;;-5.10;99.90;;;;;;5111055;27;20901;-90
2024/01/09 06:23:31;;;;;;;8.63;5.50;;;-5.10;99.90;;;;;;5111201;27;20490;-90
2024/01/09 06:25:57;;;;;;;7.20;4.87;;;-5.10;99.90;;;;;;5110508;27;21116;-89
2024/01/09 06:28:23;;;;;;;7.07;4.57;;;-5.10;99.90;;;;;;5127730;27;20417;-90
2024/01/09 06:30:49;;;;;;;7.65;4.70;;;-5.20;99.90;;;;;;5126739;27;20937;-89
2024/01/09 06:33:15;;;;;;;8.07;5.00;;;-5.20;99.90;;;;;;5137153;27;20427;-90
2024/01/09 06:35:40;;;;;;;8.37;4.87;;;-5.20;99.90;;;;;;5128361;27;20481;-90
2024/01/09 06:38:07;;;;;;;7.93;4.75;;;-5.20;99.90;;;;;;5120270;27;20443;-89
2024/01/09 06:40:33;;;;;;;9.32;5.45;;;-5.20;99.90;;;;;;5132159;27;20404;-89
2024/01/09 06:42:58;;;;;;;8.07;5.28;;;-5.30;99.90;;;;;;5130606;27;20389;-89
2024/01/09 06:45:24;;;;;;;8.90;5.53;;;-5.30;99.90;;;;;;5134991;27;20410;-89
2024/01/09 06:47:50;;;;;;;8.27;5.23;;;-5.30;99.90;;;;;;5139553;27;20453;-90
2024/01/09 06:50:16;;;;;;;7.60;5.20;;;-5.30;99.90;;;;;;5110093;27;20410;-89
2024/01/09 06:52:41;;;;;;;7.07;4.83;;;-5.30;99.90;;;;;;5111139;27;20426;-90
2024/01/09 06:55:07;;;;;;;7.93;4.80;;;-5.30;99.90;;;;;;5110355;28;20893;-91
2024/01/09 06:57:33;;;;;;;6.45;4.53;;;-5.30;99.90;;;;;;5110946;27;20411;-88
2024/01/09 06:59:59;;;;;;;7.73;4.37;;;-5.30;99.90;;;;;;5127315;27;20405;-90
2024/01/09 07:02:25;;;;;;;7.30;4.20;;;-5.30;99.90;;;;;;5110896;27;20493;-87
2024/01/09 07:04:51;;;;;;;6.38;4.00;;;-5.40;99.90;;;;;;5110298;27;20497;-89
2024/01/09 07:07:16;;;;;;;7.10;3.92;;;-5.30;99.90;;;;;;5110938;27;20438;-90
2024/01/09 07:09:42;;;;;;;6.23;4.13;;;-5.40;99.90;;;;;;5110690;27;20427;-90
2024/01/09 07:12:09;;;;;;;6.17;3.73;;;-5.40;99.90;;;;;;5110169;27;20434;-89
2024/01/09 07:14:36;;;;;;;6.77;4.07;;;-5.40;99.90;;;;;;5110746;27;20762;-90
2024/01/09 07:17:03;;;;;;;7.60;4.07;;;-5.40;99.90;;;;;;5117328;27;20400;-88
2024/01/09 07:19:30;;;;;;;6.47;4.00;;;-5.40;99.90;;;;;;5130995;27;20389;-89
2024/01/09 07:21:56;;;;;;;6.55;3.50;;;-5.40;99.90;;;;;;5131120;27;20872;-89
2024/01/09 07:24:21;;;;;;;6.57;3.83;;;-5.40;99.90;;;;;;5131203;27;20412;-89
2024/01/09 07:26:47;;;;;;;5.90;3.50;;;-5.40;99.90;;;;;;5148022;27;20402;-89
2024/01/09 07:29:16;;;;;;;5.70;3.67;;;-5.40;99.90;;;;;;5130910;27;20429;-89
2024/01/09 07:31:42;;;;;;;5.10;3.13;;;-5.50;99.90;;;;;;5148236;27;20448;-89
2024/01/09 07:34:08;;;;;;;5.97;3.20;;;-5.50;99.90;;;;;;5130101;27;20944;-88
2024/01/09 07:36:34;;;;;;;4.50;3.00;;;-5.50;99.90;;;;;;5131757;27;20409;-90
2024/01/09 07:38:59;;;;;;;5.18;3.08;;;-5.50;99.90;;;;;;5147457;27;20408;-89
2024/01/09 07:41:25;;;;;;;5.45;3.10;;;-5.40;99.90;;;;;;5131960;27;20746;-88
2024/01/09 07:43:51;;;;;;;6.23;3.07;;;-5.40;99.90;;;;;;5134771;27;20401;-89
2024/01/09 07:46:17;;;;;;;4.43;2.90;;;-5.40;99.90;;;;;;5134696;27;20392;-91
2024/01/09 07:48:43;;;;;;;5.25;2.80;;;-5.40;99.90;;;;;;5152842;27;20404;-89
2024/01/09 07:51:09;;;;;;;4.88;2.75;;;-5.40;99.90;;;;;;5119451;27;20787;-88
2024/01/09 07:53:34;;;;;;;4.87;2.80;;;-5.40;99.90;;;;;;5114916;27;20579;-90
2024/01/09 07:56:00;;;;;;;5.15;2.83;;;-5.40;99.90;;;;;;5113864;27;20395;-89
2024/01/09 07:58:26;;;;;;;4.65;2.58;;;-5.40;99.90;;;;;;5132071;27;20442;-90
2024/01/09 08:00:53;;;;;;;5.60;3.10;;;-5.40;99.90;;;;;;5134625;27;20393;-90
2024/01/09 08:03:19;;;;;;;4.75;3.25;;;-5.30;99.90;;;;;;5134713;27;20404;-90
2024/01/09 08:05:45;;;;;;;5.87;3.50;;;-5.40;99.90;;;;;;5134862;27;20396;-89
2024/01/09 08:08:11;;;;;;;5.53;3.63;;;-5.30;99.90;;;;;;5134768;27;20404;-89
2024/01/09 08:10:37;;;;;;;5.40;2.92;;;-5.30;99.90;;;;;;5135001;27;20401;-89
2024/01/09 08:13:03;;;;;;;5.53;2.95;;;-5.30;99.90;;;;;;5151395;27;20930;-89
2024/01/09 08:15:29;;;;;;;5.88;2.88;;;-5.20;99.90;;;;;;5134494;27;20393;-90
2024/01/09 08:17:54;;;;;;;6.15;3.22;;;-5.20;99.90;;;;;;5134068;27;20878;-91
2024/01/09 08:20:20;;;;;;;6.95;3.67;;;-5.20;99.90;;;;;;5134822;27;20449;-91
2024/01/09 08:22:48;;;;;;;4.70;3.08;;;-5.20;99.90;;;;;;5133932;27;20408;-89
2024/01/09 08:25:13;;;;;;;5.03;3.10;;;-5.20;99.90;;;;;;5134466;27;20401;-89
2024/01/09 08:27:40;;;;;;;6.40;3.42;;;-5.10;99.90;;;;;;5134549;27;20411;-89
2024/01/09 08:30:10;;;;;;;4.95;3.10;;;-5.10;99.90;;;;;;5133925;27;20433;-91
2024/01/09 08:32:37;;;;;;;6.00;3.47;;;-5.10;99.90;;;;;;5134614;27;20432;-90
2024/01/09 08:35:03;;;;;;;8.27;3.42;;;-5.10;99.90;;;;;;5129919;27;20407;-90
2024/01/09 08:37:28;;;;;;;5.70;3.40;;;-5.10;99.90;;;;;;5114055;27;20398;-89
2024/01/09 08:39:54;;;;;;;6.45;3.78;;;-5.00;99.90;;;;;;5113262;27;20395;-89
2024/01/09 08:42:20;;;;;;;5.80;3.10;;;-4.90;99.90;;;;;;5127543;27;20430;-90
2024/01/09 08:44:45;;;;;;;5.93;3.37;;;-4.90;99.90;;;;;;5133878;27;20405;-89
2024/01/09 08:47:12;;;;;;;5.43;3.10;;;-4.90;99.90;;;;;;5133531;27;20469;-90
2024/01/09 08:49:38;;;;;;;4.78;2.90;;;-4.80;99.90;;;;;;5133904;27;20386;-91
2024/01/09 08:52:04;;;;;;;5.00;3.00;;;-4.70;99.90;;;;;;5133031;27;20389;-89
2024/01/09 08:54:30;;;;;;;4.07;2.60;;;-4.60;99.90;;;;;;5150188;27;20927;-90
2024/01/09 08:56:56;;;;;;;5.20;2.70;;;-4.60;99.90;;;;;;5122310;27;20403;-90
2024/01/09 08:59:22;;;;;;;4.47;2.47;;;-4.50;99.90;;;;;;5118281;27;20829;-90
2024/01/09 09:01:47;;;;;;;4.20;2.40;;;-4.40;99.90;;;;;;5133300;27;20445;-89
2024/01/09 09:04:13;;;;;;;5.00;2.90;;;-4.30;99.90;;;;;;5150009;27;20461;-89
2024/01/09 09:06:38;;;;;;;5.10;2.40;;;-4.30;99.90;;;;;;5133860;27;20857;-88
2024/01/09 09:09:04;;;;;;;5.53;3.00;;;-4.20;99.90;;;;;;5121653;27;20811;-91
2024/01/09 09:11:32;;;;;;;5.57;3.20;;;-4.30;99.90;;;;;;5112641;27;20398;-88
2024/01/09 09:13:58;;;;;;;4.90;2.88;;;-4.00;99.90;;;;;;5129251;27;20423;-90
2024/01/09 09:16:28;;;;;;;5.10;2.80;;;-4.00;99.90;;;;;;5112093;27;20459;-89
2024/01/09 09:18:54;;;;;;;4.57;3.05;;;-3.90;99.90;;;;;;5112156;27;20402;-90
2024/01/09 09:21:19;;;;;;;5.50;2.70;;;-3.80;99.90;;;;;;5112252;27;20519;-91
2024/01/09 09:23:45;;;;;;;5.55;3.00;;;-3.80;99.90;;;;;;5112488;27;20422;-90
2024/01/09 09:26:12;;;;;;;4.78;2.88;;;-3.70;99.90;;;;;;5111936;27;20402;-89
2024/01/09 09:28:37;;;;;;;6.53;3.58;;;-3.70;99.90;;;;;;5129882;27;20403;-88
2024/01/09 09:31:03;;;;;;;6.00;3.00;;;-3.60;99.90;;;;;;5111325;27;21170;-88
2024/01/09 09:33:31;;;;;;;5.13;3.00;;;-3.60;99.90;;;;;;5111679;27;21000;-88
2024/01/09 09:35:57;;;;;;;5.17;3.07;;;-3.40;99.90;;;;;;5111797;27;20422;-88
2024/01/09 09:38:24;;;;;;;4.72;2.75;;;-3.40;99.90;;;;;;5129273;27;20829;-89
2024/01/09 09:40:51;;;;;;;4.95;2.65;;;-3.30;99.90;;;;;;5112195;27;20413;-89
2024/01/09 09:43:24;;;;;;;4.07;2.75;;;-3.00;99.90;;;;;;5128599;27;20395;-90
2024/01/09 09:45:54;;;;;;;4.60;2.92;;;-3.10;99.90;;;;;;5112239;27;20394;-89
2024/01/09 09:48:23;;;;;;;3.88;2.50;;;-2.70;99.90;;;;;;5122578;27;20729;-89
2024/01/09 09:50:52;;;;;;;4.15;2.47;;;-2.20;99.90;;;;;;5132215;27;20397;-92
2024/01/09 09:53:18;;;;;;;4.57;2.50;;;-1.70;99.90;;;;;;5148838;27;20424;-89
2024/01/09 09:55:46;;;;;;;4.50;2.35;;;-1.30;99.90;;;;;;5149638;27;20984;-90
2024/01/09 09:58:12;;;;;;;4.35;2.28;;;-0.80;99.90;;;;;;5132235;27;20741;-89
2024/01/09 10:00:38;;;;;;;3.97;2.20;;;-0.60;94.90;;;;;;5131882;27;20453;-90
2024/01/09 10:03:08;;;;;;;3.97;2.47;;;-0.50;92.20;;;;;;5132283;27;20402;-91
2024/01/09 10:05:39;;;;;;;4.10;2.35;;;-0.40;92.50;;;;;;5148386;27;20846;-92
2024/01/09 10:08:10;;;;;;;4.65;2.53;;;-0.30;93.50;;;;;;5132558;27;20437;-90
2024/01/09 10:10:36;;;;;;;3.95;2.22;;;-0.20;91.00;;;;;;5107574;28;20428;-88
2024/01/09 10:13:03;;;;;;;4.67;2.40;;;0.10;89.60;;;;;;5145638;27;20427;-90
2024/01/09 10:15:29;;;;;;;4.32;2.50;;;0.40;83.10;;;;;;5127986;27;20394;-88
2024/01/09 10:17:54;;;;;;;3.85;2.15;;;0.50;77.60;;;;;;5111043;27;20912;-89
2024/01/09 10:20:20;;;;;;;3.88;2.45;;;0.40;76.50;;;;;;5103560;27;20394;-89
2024/01/09 10:22:48;;;;;;;3.60;2.10;;;0.40;74.30;;;;;;5109335;27;20399;-89
2024/01/09 10:25:15;;;;;;;5.30;2.50;;;0.20;74.40;;;;;;5127054;27;20399;-90
2024/01/09 10:27:41;;;;;;;4.15;2.30;;;0.00;76.60;;;;;;5127726;27;20394;-90
2024/01/09 10:30:09;;;;;;;3.88;2.22;;;0.00;81.30;;;;;;5109417;27;20444;-89
2024/01/09 10:32:39;;;;;;;3.75;2.20;;;0.00;81.40;;;;;;5108276;27;20399;-90
2024/01/09 10:35:05;;;;;;;3.20;1.67;;;0.10;78.70;;;;;;5110963;27;20398;-88
2024/01/09 10:37:31;;;;;;;3.80;1.90;;;0.20;73.70;;;;;;5110945;27;20474;-91
2024/01/09 10:39:58;;;;;;;3.78;1.95;;;0.00;73.20;;;;;;5110292;27;20478;-89
2024/01/09 10:42:24;;;;;;;3.67;1.77;;;-0.10;75.60;;;;;;5110893;27;20403;-88
2024/01/09 10:44:49;;;;;;;3.27;2.10;;;-0.20;77.10;;;;;;5110067;27;20472;-90
2024/01/09 10:47:16;;;;;;;4.10;1.80;;;-0.20;76.40;;;;;;5127693;27;20391;-89
2024/01/09 10:49:44;;;;;;;3.30;1.88;;;0.00;76.60;;;;;;5110177;27;20406;-89
2024/01/09 10:52:13;;;;;;;3.33;1.98;;;0.10;75.10;;;;;;5127602;27;20394;-92
2024/01/09 10:54:44;;;;;;;3.15;1.75;;;0.30;73.70;;;;;;5110717;27;20791;-88
2024/01/09 10:57:14;;;;;;;2.92;1.67;;;0.50;71.60;;;;;;5110043;27;20439;-88
2024/01/09 10:59:42;;;;;;;2.40;1.30;;;0.80;70.10;;;;;;5112197;27;20410;-91
2024/01/09 11:02:15;;;;;;;2.60;1.40;;;1.20;67.30;;;;;;5130785;27;20420;-91
2024/01/09 11:04:43;;;;;;;2.55;1.52;;;1.40;68.00;;;;;;5129774;27;20390;-91
2024/01/09 11:07:13;;;;;;;3.40;1.10;;;1.60;65.20;;;;;;5109284;27;20491;-91
2024/01/09 11:09:41;;;;;;;2.20;1.08;;;1.90;60.60;;;;;;5109131;27;20528;-90
2024/01/09 11:12:09;;;;;;;2.60;1.00;;;2.00;59.70;;;;;;5109294;27;20386;-91
2024/01/09 11:14:37;;;;;;;2.40;0.80;;;2.20;57.70;;;;;;5109324;27;20509;-90
2024/01/09 11:17:04;;;;;;;1.80;0.70;;;2.00;58.00;;;;;;5109861;27;20415;-90
2024/01/09 11:19:30;;;;;;;2.00;0.70;;;2.00;58.30;;;;;;5126695;27;20389;-89
2024/01/09 11:21:55;;;;;;;1.90;0.90;;;2.00;59.40;;;;;;5147973;27;20404;-90
2024/01/09 11:24:25;;;;;;;2.50;0.90;;;2.20;57.50;;;;;;5130719;27;20468;-90
2024/01/09 11:27:10;;;;;;;2.45;0.93;;;2.60;57.50;;;;;;5130611;27;20401;-90
2024/01/09 11:29:49;;;;;;;2.90;1.00;;;3.00;56.70;;;;;;5131367;27;20401;-91
2024/01/09 11:32:16;;;;;;;2.38;1.10;;;3.10;56.80;;;;;;5130144;27;20431;-92
2024/01/09 11:34:46;;;;;;;3.08;1.10;;;2.90;55.20;;;;;;5131032;27;20511;-90
2024/01/09 11:37:20;;;;;;;2.70;1.30;;;2.80;55.90;;;;;;5131152;27;20802;-91
2024/01/09 11:39:45;;;;;;;2.83;1.48;;;2.70;57.90;;;;;;5121563;28;20469;-91
2024/01/09 11:42:12;;;;;;;2.58;1.42;;;2.50;58.40;;;;;;5128028;28;20486;-90
2024/01/09 11:44:38;;;;;;;2.40;1.30;;;2.20;59.20;;;;;;5109764;28;20478;-91
2024/01/09 11:47:04;;;;;;;3.05;1.50;;;1.90;59.40;;;;;;5110621;28;20438;-91
2024/01/09 11:49:29;;;;;;;3.75;2.00;;;1.70;61.30;;;;;;5142180;27;20401;-90
2024/01/09 11:51:55;;;;;;;3.45;2.10;;;1.50;63.00;;;;;;5127645;27;20454;-91
2024/01/09 11:54:21;;;;;;;4.82;2.95;;;1.40;65.30;;;;;;5108977;28;21024;-91
2024/01/09 11:56:48;;;;;;;4.07;2.25;;;1.40;67.80;;;;;;5098265;27;20445;-91
2024/01/09 11:59:18;;;;;;;2.88;2.17;;;1.40;67.60;;;;;;5148100;27;20484;-91
2024/01/09 12:01:46;;;;;;;2.67;1.50;;;1.30;70.10;;;;;;5129723;27;20914;-90
2024/01/09 12:04:11;;;;;;;2.93;1.70;;;1.30;69.40;;;;;;5118697;27;20395;-92
2024/01/09 12:06:37;;;;;;;5.80;2.80;;;1.30;69.40;;;;;;5109334;28;20739;-90
2024/01/09 12:09:03;;;;;;;3.43;2.37;;;1.60;70.10;;;;;;5110596;27;20758;-91
2024/01/09 12:11:29;;;;;;;2.97;1.98;;;2.00;69.20;;;;;;5110737;28;20402;-90
2024/01/09 12:14:00;;;;;;;3.37;2.20;;;2.40;65.90;;;;;;5108136;28;20967;-91
2024/01/09 12:16:28;;;;;;;3.83;2.17;;;3.10;62.30;;;;;;5122052;27;20438;-90
2024/01/09 12:18:57;;;;;;;4.10;2.58;;;3.80;62.60;;;;;;5119418;27;20403;-90
2024/01/09 12:21:33;;;;;;;5.70;3.60;;;4.20;60.30;;;;;;5110193;27;20412;-90
2024/01/09 12:24:01;;;;;;;4.23;2.80;;;4.80;57.80;;;;;;5106473;27;20488;-92
2024/01/09 12:26:28;;;;;;;4.45;2.70;;;4.90;54.70;;;;;;5125321;28;20494;-91
2024/01/09 12:28:54;;;;;;;3.70;2.50;;;4.70;53.90;;;;;;5109943;27;20391;-92
2024/01/09 12:31:23;;;;;;;4.18;2.90;;;4.50;53.60;;;;;;5112209;27;20391;-94
2024/01/09 12:33:50;;;;;;;4.50;3.10;;;4.50;56.40;;;;;;5119754;27;20428;-92
2024/01/09 12:36:16;;;;;;;5.00;3.40;;;4.00;56.50;;;;;;5130258;27;20420;-91
2024/01/09 12:38:42;;;;;;;4.18;3.10;;;3.90;57.30;;;;;;5113323;27;20494;-91
2024/01/09 12:41:08;;;;;;;5.85;3.45;;;4.10;57.70;;;;;;5112026;27;20399;-92
2024/01/09 12:43:34;;;;;;;4.43;3.05;;;3.70;57.90;;;;;;5125296;27;20768;-91